Main page
METAR-TAF:

METAR-TAF

Airports :

Fort-de-France, Martinique

Martinique Aimé Césaire International Airport

latitude: 14-36N, longitude: 061-00W, elevation: 5 m

Current weather observation

The report was made 43 minutes ago, at 15:00 UTC
Wind 13 kt from the East/Southeast, varying between East and Southeast
Temperature 28°C
Humidity 74%
Pressure 1015 hPa
Visibility 10 km or more

METAR: TFFF 231500Z AUTO 11013KT 080V140 9999 FEW023/// SCT058/// BKN094/// ///TCU 28/23 Q1015 TEMPO 4000 SHRA

Time: 11:43 (15:43 UTC)

Forecast

The report was made 4 hours and 43 minutes ago, at 11:00 UTC
Forecast valid from 23 at 12 UTC to 24 at 12 UTC
Wind 10 kt from the East
Visibility 10 km or more
Scattered clouds at a height of 2800 ft
Probability 30% :
Temporary
from 23 at 12 UTC to 23 at 20 UTC
Wind 10 kt from the East with gusts up to 20 kt
Visibility: 4000 m
Scattered clouds at a height of 2000 ft, Towering cumulus.
rain showers

TAF: TFFF 231100Z 2312/2412 09010KT 9999 SCT028 PROB30 TEMPO 2312/2320 10010G20KT 4000 SHRA SCT020TCU

Weather observations and forecasts of more than 4000 airports (METAR and TAF reports).

The available stations are represented by yellow and red dots on the map.

Hover mouse over dot to see the name of the station.

Then click to see weather observations and forecasts.

To change the map : click on the green buttons with a black cross to zoom in, on the green button with a dash to zoom out, or on the green arrows for adjacent maps.


METAR-TAF: